Time;durP1;ratioP1;P1;durP2;ratioP2;P2;SDS_P1;SDS_P2;PMS_P1;PMS_P2;Temp;Humidity;BMP_temperature;BMP_pressure;BME280_temperature;BME280_humidity;BME280_pressure;Samples;Min_cycle;Max_cycle;Signal;HPM_P1;HPM_P2
2022/03/12 00:01:36;;;;;;;10.30;4.70;;;;;;;-5.55;84.39;146298.63;1770699;79;21008;-58
2022/03/12 00:04:08;;;;;;;14.97;5.80;;;;;;;-5.57;84.63;146293.52;1802385;79;21331;-59
2022/03/12 00:06:36;;;;;;;15.43;5.83;;;;;;;-5.58;84.62;146290.95;1810934;79;21056;-58
2022/03/12 00:09:05;;;;;;;15.07;5.27;;;;;;;-5.61;84.58;146284.53;1811640;79;20933;-59
2022/03/12 00:11:47;;;;;;;14.87;6.37;;;;;;;-5.63;84.90;146278.16;1768062;79;20949;-58
2022/03/12 00:14:07;;;;;;;11.47;5.73;;;;;;;-5.65;84.76;146274.30;1762946;81;21016;-58
2022/03/12 00:16:34;;;;;;;15.30;6.63;;;;;;;-5.66;84.99;146270.44;1764820;81;21016;-58
2022/03/12 00:19:05;;;;;;;17.23;6.50;;;;;;;-5.68;85.13;146265.31;1764593;81;21080;-58
2022/03/12 00:21:35;;;;;;;15.13;6.77;;;;;;;-5.71;85.30;146258.94;1742039;81;21076;-58
2022/03/12 00:24:04;;;;;;;15.43;6.00;;;;;;;-5.72;85.23;146255.08;1764789;81;21195;-59
2022/03/12 00:26:33;;;;;;;11.70;5.40;;;;;;;-5.73;85.51;146252.52;1764075;80;21020;-59
2022/03/12 00:29:03;;;;;;;14.63;6.67;;;;;;;-5.75;85.33;146249.95;1765320;80;21025;-64
2022/03/12 00:31:34;;;;;;;15.77;6.93;;;;;;;-5.75;85.38;146248.66;1765185;81;21066;-62
2022/03/12 00:34:01;;;;;;;14.57;6.63;;;;;;;-5.78;85.53;146242.28;1765095;81;21008;-58
2022/03/12 00:36:29;;;;;;;16.17;7.40;;;;;;;-5.79;85.49;146239.72;1764334;81;22039;-58
2022/03/12 00:38:56;;;;;;;13.53;5.73;;;;;;;-5.82;85.48;146232.05;1764683;81;21040;-58
2022/03/12 00:41:25;;;;;;;15.17;6.37;;;;;;;-5.85;85.43;146223.06;1758445;81;21092;-58
2022/03/12 00:43:53;;;;;;;15.47;6.53;;;;;;;-5.87;85.53;146219.20;1758455;81;21028;-58
2022/03/12 00:46:22;;;;;;;14.33;5.90;;;;;;;-5.89;85.51;146214.09;1758122;80;21083;-58
2022/03/12 00:48:50;;;;;;;15.47;6.00;;;;;;;-5.90;85.52;146211.53;1758349;80;21213;-57
2022/03/12 00:51:18;;;;;;;20.00;7.17;;;;;;;-5.92;85.44;146206.41;1759027;79;21494;-58
2022/03/12 00:53:45;;;;;;;16.33;6.17;;;;;;;-5.95;85.62;146198.73;1763527;79;21051;-58
2022/03/12 00:56:12;;;;;;;13.13;5.80;;;;;;;-5.97;85.78;146193.63;1763636;80;21000;-58
2022/03/12 00:58:45;;;;;;;16.47;6.43;;;;;;;-6.00;86.17;146185.94;1763412;79;21449;-58
2022/03/12 01:01:08;;;;;;;13.70;5.80;;;;;;;-6.00;86.22;146185.94;1763246;81;21964;-58
2022/03/12 01:03:36;;;;;;;15.97;6.00;;;;;;;-6.00;86.24;146185.94;1763452;81;21056;-58
2022/03/12 01:06:04;;;;;;;15.43;6.20;;;;;;;-6.00;86.27;146185.94;1764030;80;20993;-58
2022/03/12 01:08:35;;;;;;;14.53;6.43;;;;;;;-5.98;86.27;146191.06;1763996;79;21453;-58
2022/03/12 01:11:06;;;;;;;14.50;6.50;;;;;;;-5.97;86.50;146193.63;1767579;79;20984;-59
2022/03/12 01:13:34;;;;;;;16.00;6.27;;;;;;;-5.96;86.59;146196.17;1709733;83;21214;-58
2022/03/12 01:16:01;;;;;;;12.40;5.70;;;;;;;-5.95;86.24;146200.03;1742427;82;21463;-57
2022/03/12 01:18:29;;;;;;;19.97;7.30;;;;;;;-5.95;86.18;146198.73;1709094;82;21040;-58
2022/03/12 01:21:08;;;;;;;14.03;6.23;;;;;;;-5.94;86.08;146201.28;1742291;82;21048;-58
2022/03/12 01:23:35;;;;;;;13.53;5.80;;;;;;;-5.95;85.97;146198.73;1741962;80;21501;-58
2022/03/12 01:26:03;;;;;;;14.90;6.33;;;;;;;-5.98;85.48;146191.06;1709782;82;21587;-57
2022/03/12 01:28:30;;;;;;;13.90;5.90;;;;;;;-5.99;85.75;146188.50;1742247;82;21176;-59
2022/03/12 01:30:59;;;;;;;15.93;6.77;;;;;;;-5.99;85.77;146188.50;1713677;83;21091;-59
2022/03/12 01:33:26;;;;;;;20.57;7.43;;;;;;;-6.00;85.89;146185.94;1713937;83;21095;-58
2022/03/12 01:35:54;;;;;;;18.43;7.07;;;;;;;-6.01;85.83;146183.44;1713834;83;21138;-58
2022/03/12 01:38:48;;;;;;;14.73;5.37;;;;;;;-6.03;85.64;146179.56;1746817;80;21216;-59
2022/03/12 01:41:21;;;;;;;15.80;6.73;;;;;;;-6.07;84.84;146170.64;1762749;79;20980;-58
2022/03/12 01:43:50;;;;;;;12.05;5.87;;;;;;;-6.12;84.51;146157.80;1764292;81;21098;-59
2022/03/12 01:46:18;;;;;;;12.20;5.77;;;;;;;-6.14;84.79;146152.69;1764494;81;21134;-60
2022/03/12 01:48:49;;;;;;;11.00;5.80;;;;;;;-6.16;85.00;146147.56;1763805;79;21134;-59
2022/03/12 01:51:16;;;;;;;15.67;6.80;;;;;;;-6.20;84.70;146137.34;1764152;79;21162;-58
2022/03/12 01:53:44;;;;;;;14.10;5.60;;;;;;;-6.30;84.47;146111.72;1770543;81;21049;-58
2022/03/12 01:56:11;;;;;;;11.03;5.83;;;;;;;-6.39;84.47;146091.25;1770670;79;20973;-57
2022/03/12 01:58:40;;;;;;;13.27;6.23;;;;;;;-6.48;84.51;146069.48;1770346;80;21531;-59
2022/03/12 02:01:07;;;;;;;15.47;6.27;;;;;;;-6.55;84.56;146051.59;1733438;81;20919;-58
2022/03/12 02:03:34;;;;;;;14.73;5.70;;;;;;;-6.60;84.69;146037.50;1770433;79;21224;-57
2022/03/12 02:06:01;;;;;;;13.07;6.23;;;;;;;-6.65;84.86;146025.97;1771319;79;20950;-58
2022/03/12 02:08:30;;;;;;;21.53;7.70;;;;;;;-6.68;85.05;146019.59;1770624;79;20974;-57
2022/03/12 02:10:57;;;;;;;19.00;6.67;;;;;;;-6.69;85.09;146017.05;1789346;79;20998;-57
2022/03/12 02:13:28;;;;;;;13.27;6.23;;;;;;;-6.69;85.19;146015.73;1771258;79;21072;-58
2022/03/12 02:16:09;;;;;;;12.83;5.60;;;;;;;-6.71;85.30;146011.94;1771198;79;21447;-58
2022/03/12 02:18:38;;;;;;;14.17;6.60;;;;;;;-6.70;85.31;146014.48;1770405;79;21581;-58
2022/03/12 02:21:06;;;;;;;16.07;5.90;;;;;;;-6.68;85.38;146019.59;1771856;79;20863;-64
2022/03/12 02:23:47;;;;;;;10.70;5.80;;;;;;;-6.66;85.30;146023.41;1771375;79;21048;-63
2022/03/12 02:26:15;;;;;;;23.47;6.10;;;;;;;-6.67;85.22;146022.16;1771982;79;21425;-63
2022/03/12 02:28:42;;;;;;;17.23;7.00;;;;;;;-6.68;85.13;146019.59;1771795;79;21209;-63
2022/03/12 02:31:11;;;;;;;15.77;6.57;;;;;;;-6.64;85.53;146029.83;1771938;81;20982;-62
2022/03/12 02:33:38;;;;;;;16.13;6.30;;;;;;;-6.60;85.71;146038.80;1772045;79;21467;-62
2022/03/12 02:36:07;;;;;;;15.20;5.63;;;;;;;-6.57;84.91;146045.17;1772454;79;20947;-58
2022/03/12 02:38:35;;;;;;;14.07;5.70;;;;;;;-6.52;84.64;146059.25;1771114;79;21061;-59
2022/03/12 02:41:10;;;;;;;11.93;5.80;;;;;;;-6.46;84.35;146073.34;1771231;79;21112;-62
2022/03/12 02:43:37;;;;;;;17.10;6.23;;;;;;;-6.40;84.03;146087.44;1769702;80;21056;-59
2022/03/12 02:46:04;;;;;;;13.33;6.17;;;;;;;-6.37;83.65;146096.36;1771175;79;20875;-58
2022/03/12 02:48:32;;;;;;;11.77;5.33;;;;;;;-6.33;83.19;146105.34;1770370;81;21088;-58
2022/03/12 02:51:01;;;;;;;13.63;5.83;;;;;;;-6.29;82.96;146114.31;1771327;79;20950;-59
2022/03/12 02:53:28;;;;;;;12.00;5.03;;;;;;;-6.28;82.52;146116.88;1771905;79;21234;-58
2022/03/12 02:55:55;;;;;;;12.20;5.60;;;;;;;-6.28;82.65;146118.12;1771679;81;21000;-58
2022/03/12 02:58:22;;;;;;;16.23;6.37;;;;;;;-6.25;82.21;146124.55;1771623;79;21000;-57
2022/03/12 03:00:53;;;;;;;16.20;5.57;;;;;;;-6.23;82.24;146129.66;1771478;79;21025;-58
2022/03/12 03:03:20;;;;;;;14.77;6.00;;;;;;;-6.24;82.19;146127.09;1771354;81;21061;-58
2022/03/12 03:05:48;;;;;;;11.50;4.87;;;;;;;-6.25;81.54;146125.80;1771583;79;21217;-57
2022/03/12 03:08:21;;;;;;;17.50;6.10;;;;;;;-6.24;81.72;146127.09;1770829;81;21389;-59
2022/03/12 03:10:53;;;;;;;13.27;6.07;;;;;;;-6.23;82.05;146129.66;1789248;79;21012;-58
2022/03/12 03:13:36;;;;;;;13.73;6.03;;;;;;;-6.20;82.31;146138.59;1757825;81;21946;-58
2022/03/12 03:16:21;;;;;;;13.03;5.80;;;;;;;-6.19;81.44;146139.89;1771103;81;20974;-58
2022/03/12 03:18:53;;;;;;;15.53;6.00;;;;;;;-6.21;81.03;146136.03;1771158;79;21923;-58
2022/03/12 03:21:26;;;;;;;13.35;5.67;;;;;;;-6.23;80.86;146129.66;1770539;79;21470;-60
2022/03/12 03:23:54;;;;;;;10.80;4.53;;;;;;;-6.22;81.35;146132.22;1771123;79;21021;-58
2022/03/12 03:26:40;;;;;;;11.37;6.03;;;;;;;-6.24;81.08;146127.09;1771098;79;20929;-58
2022/03/12 03:29:08;;;;;;;11.67;4.83;;;;;;;-6.24;81.25;146127.09;1771238;81;20913;-57
2022/03/12 03:31:36;;;;;;;13.97;6.43;;;;;;;-6.27;80.78;146119.44;1771006;80;21279;-59
2022/03/12 03:34:04;;;;;;;12.50;5.77;;;;;;;-6.27;80.77;146119.44;1771162;79;20983;-57
2022/03/12 03:36:31;;;;;;;12.97;6.03;;;;;;;-6.31;81.07;146109.16;1770437;79;21046;-59
2022/03/12 03:38:58;;;;;;;16.10;5.43;;;;;;;-6.30;81.16;146111.72;1770637;79;21054;-59
2022/03/12 03:41:25;;;;;;;14.27;5.33;;;;;;;-6.32;81.08;146107.91;1770507;79;21386;-59
2022/03/12 03:43:53;;;;;;;15.70;5.50;;;;;;;-6.34;81.34;146104.03;1770668;79;21098;-57
2022/03/12 03:46:22;;;;;;;14.07;5.93;;;;;;;-6.35;81.22;146100.22;1769946;81;21466;-58
2022/03/12 03:48:51;;;;;;;16.30;5.30;;;;;;;-6.38;81.26;146093.81;1770405;79;21033;-58
2022/03/12 03:51:21;;;;;;;10.70;5.43;;;;;;;-6.40;81.32;146088.69;1770925;79;21044;-58
2022/03/12 03:53:49;;;;;;;8.63;4.70;;;;;;;-6.39;81.28;146091.25;1784073;79;21088;-57
2022/03/12 03:56:16;;;;;;;13.53;5.03;;;;;;;-6.41;81.06;146086.13;1786540;79;21238;-57
2022/03/12 03:58:44;;;;;;;13.07;5.90;;;;;;;-6.41;81.07;146086.13;1786454;79;21027;-57
2022/03/12 04:01:16;;;;;;;13.93;5.80;;;;;;;-6.43;81.08;146081.02;1786568;80;20956;-58
2022/03/12 04:03:48;;;;;;;12.63;5.87;;;;;;;-6.44;81.09;146077.16;1787783;78;21637;-62
2022/03/12 04:06:14;;;;;;;12.07;5.93;;;;;;;-6.46;81.31;146073.34;1787185;79;21628;-63
2022/03/12 04:08:44;;;;;;;15.20;5.90;;;;;;;-6.48;81.35;146068.23;1786711;79;21895;-59
2022/03/12 04:11:18;;;;;;;13.03;5.77;;;;;;;-6.49;81.24;146066.94;1786383;80;20969;-58
2022/03/12 04:13:45;;;;;;;15.70;6.17;;;;;;;-6.52;81.32;146059.25;1787712;78;21044;-63
2022/03/12 04:16:14;;;;;;;13.40;5.77;;;;;;;-6.52;81.28;146057.95;1786741;79;21355;-57
2022/03/12 04:18:46;;;;;;;11.80;5.50;;;;;;;-6.54;81.52;146052.84;1787283;80;21933;-58
2022/03/12 04:21:15;;;;;;;12.97;5.97;;;;;;;-6.55;81.52;146050.28;1787572;79;21381;-59
2022/03/12 04:23:44;;;;;;;13.70;6.07;;;;;;;-6.55;82.37;146050.28;1787262;80;21085;-58
2022/03/12 04:26:13;;;;;;;16.53;6.30;;;;;;;-6.60;82.35;146037.50;1788134;79;20913;-62
2022/03/12 04:28:40;;;;;;;16.90;6.23;;;;;;;-6.64;83.00;146028.53;1787538;78;21013;-57
2022/03/12 04:31:08;;;;;;;12.07;6.00;;;;;;;-6.69;83.28;146017.05;1788173;80;20995;-62
2022/03/12 04:33:38;;;;;;;13.60;5.60;;;;;;;-6.70;83.72;146014.48;1787510;79;21036;-58
2022/03/12 04:36:09;;;;;;;15.23;6.60;;;;;;;-6.73;83.76;146005.52;1788057;80;20919;-62
2022/03/12 04:38:37;;;;;;;17.70;6.87;;;;;;;-6.76;83.94;146000.41;1788017;79;21615;-63
2022/03/12 04:41:04;;;;;;;20.50;7.10;;;;;;;-6.76;84.05;146000.41;1759078;80;21043;-63
2022/03/12 04:43:32;;;;;;;14.90;6.70;;;;;;;-6.73;84.16;146006.81;1753018;80;21002;-63
2022/03/12 04:46:02;;;;;;;11.80;5.70;;;;;;;-6.69;83.99;146017.05;1753375;81;21848;-63
2022/03/12 04:48:29;;;;;;;12.97;6.60;;;;;;;-6.65;83.92;146025.97;1752733;80;21041;-63
2022/03/12 04:50:57;;;;;;;14.60;5.90;;;;;;;-6.61;83.79;146036.25;1752906;80;20966;-63
2022/03/12 04:53:25;;;;;;;12.27;5.37;;;;;;;-6.58;83.70;146042.61;1738830;80;21047;-63
2022/03/12 04:55:52;;;;;;;13.67;6.23;;;;;;;-6.56;83.77;146047.72;1726543;81;21046;-57
2022/03/12 04:58:19;;;;;;;13.33;6.33;;;;;;;-6.52;83.65;146057.95;1726318;81;21227;-58
2022/03/12 05:00:47;;;;;;;14.87;6.10;;;;;;;-6.49;83.24;146065.67;1725960;81;21060;-58
2022/03/12 05:03:18;;;;;;;12.77;6.13;;;;;;;-6.50;82.29;146063.13;1726086;83;21401;-59
2022/03/12 05:05:49;;;;;;;15.60;7.07;;;;;;;-6.43;82.62;146081.02;1726094;82;21640;-59
2022/03/12 05:08:23;;;;;;;16.37;7.70;;;;;;;-6.36;82.04;146098.92;1726500;83;20955;-59
2022/03/12 05:10:55;;;;;;;15.20;6.57;;;;;;;-6.24;82.34;146127.09;1753286;80;21004;-60
2022/03/12 05:13:24;;;;;;;13.07;6.20;;;;;;;-6.11;81.80;146160.36;1771348;80;20961;-57
2022/03/12 05:15:53;;;;;;;11.43;5.60;;;;;;;-6.00;81.47;146185.94;1771461;81;21016;-58
2022/03/12 05:18:21;;;;;;;12.80;6.17;;;;;;;-5.91;80.20;146210.28;1771722;81;20992;-59
2022/03/12 05:20:48;;;;;;;12.77;5.30;;;;;;;-5.81;79.84;146233.31;1771823;79;21510;-59
2022/03/12 05:23:17;;;;;;;13.10;5.63;;;;;;;-5.72;79.08;146256.38;1771695;81;21421;-60
2022/03/12 05:25:47;;;;;;;12.57;5.20;;;;;;;-5.64;78.48;146275.55;1772372;81;20953;-64
2022/03/12 05:28:22;;;;;;;13.50;5.83;;;;;;;-5.61;77.76;146283.28;1769945;79;20957;-63
2022/03/12 05:30:48;;;;;;;8.58;4.00;;;;;;;-5.58;77.35;146290.95;1770757;81;21669;-60
2022/03/12 05:33:17;;;;;;;14.33;5.77;;;;;;;-5.48;76.72;146315.30;1771146;81;20954;-58
2022/03/12 05:35:45;;;;;;;12.90;5.23;;;;;;;-5.40;75.93;146334.52;1771619;81;22010;-59
2022/03/12 05:38:14;;;;;;;11.07;4.63;;;;;;;-5.37;74.62;146342.19;1771044;81;21009;-61
2022/03/12 05:40:42;;;;;;;9.90;4.47;;;;;;;-5.25;74.39;146371.66;1758544;80;21079;-59
2022/03/12 05:43:15;;;;;;;10.33;4.77;;;;;;;-5.02;72.87;146428.03;1740462;82;20883;-59
2022/03/12 05:45:45;;;;;;;11.77;4.83;;;;;;;-4.71;72.56;146504.91;1741313;82;21799;-63
2022/03/12 05:48:13;;;;;;;11.97;5.60;;;;;;;-4.21;70.62;146629.28;1740835;81;21460;-59
2022/03/12 05:50:42;;;;;;;10.40;4.53;;;;;;;-3.76;67.89;146742.16;1740318;82;21041;-59
2022/03/12 05:53:10;;;;;;;10.18;4.47;;;;;;;-3.39;66.26;146831.98;1743871;80;21146;-63
2022/03/12 05:55:41;;;;;;;12.50;5.47;;;;;;;-2.88;65.25;146960.33;1757287;80;21128;-63
2022/03/12 05:58:10;;;;;;;11.95;5.28;;;;;;;-2.47;63.61;147060.50;1785218;80;21114;-63
2022/03/12 06:00:39;;;;;;;11.65;4.78;;;;;;;-2.41;63.28;147075.89;1785119;80;21820;-63
2022/03/12 06:03:08;;;;;;;12.55;5.95;;;;;;;-2.75;61.71;146991.16;1785279;79;20925;-63
2022/03/12 06:05:40;;;;;;;14.13;5.00;;;;;;;-3.21;62.34;146878.14;1785034;79;21071;-62
2022/03/12 06:08:07;;;;;;;14.00;5.67;;;;;;;-3.61;63.51;146779.34;1785499;80;20958;-63
2022/03/12 06:10:37;;;;;;;11.05;4.85;;;;;;;-3.80;64.94;146731.91;1785024;80;21798;-62
2022/03/12 06:13:10;;;;;;;12.65;5.30;;;;;;;-3.90;65.06;146706.22;1785173;78;20905;-63
2022/03/12 06:15:38;;;;;;;12.03;5.28;;;;;;;-3.95;65.89;146693.41;1785506;79;21000;-63
2022/03/12 06:18:05;;;;;;;13.65;5.15;;;;;;;-3.92;66.15;146702.39;1786254;80;21308;-63
2022/03/12 06:20:37;;;;;;;9.95;4.67;;;;;;;-3.91;65.89;146703.66;1785661;79;21536;-63
2022/03/12 06:23:02;;;;;;;11.45;5.53;;;;;;;-3.89;66.65;146708.78;1785540;80;21013;-58
2022/03/12 06:25:30;;;;;;;11.53;5.40;;;;;;;-3.80;66.27;146731.91;1784994;80;21894;-59
2022/03/12 06:27:58;;;;;;;10.23;4.78;;;;;;;-3.83;64.96;146724.20;1785719;80;21031;-62
2022/03/12 06:30:27;;;;;;;12.73;4.87;;;;;;;-3.86;65.42;146716.52;1785696;80;21169;-62
2022/03/12 06:32:55;;;;;;;11.90;4.85;;;;;;;-3.81;65.96;146728.03;1785637;80;20974;-63
2022/03/12 06:35:24;;;;;;;9.93;4.47;;;;;;;-3.70;66.45;146754.97;1785210;80;21052;-58
2022/03/12 06:37:51;;;;;;;10.32;4.55;;;;;;;-3.68;66.12;146760.09;1785275;80;21245;-58
2022/03/12 06:40:21;;;;;;;13.15;5.05;;;;;;;-3.72;66.00;146749.84;1781612;78;21609;-61
2022/03/12 06:42:56;;;;;;;11.15;5.00;;;;;;;-3.84;65.05;146721.64;1747687;80;21066;-62
2022/03/12 06:45:21;;;;;;;11.73;4.78;;;;;;;-3.92;65.05;146701.09;1746840;81;21073;-63
2022/03/12 06:47:48;;;;;;;11.13;5.20;;;;;;;-4.08;64.96;146662.64;1747806;82;21122;-62
2022/03/12 06:50:18;;;;;;;11.97;5.03;;;;;;;-4.25;65.55;146620.30;1747666;80;22172;-59
2022/03/12 06:52:48;;;;;;;10.32;4.47;;;;;;;-4.29;65.74;146608.78;1747585;82;21034;-59
2022/03/12 06:55:17;;;;;;;6.97;3.77;;;;;;;-4.32;65.45;146602.36;1751510;81;20873;-59
2022/03/12 06:57:46;;;;;;;13.40;4.60;;;;;;;-4.41;65.39;146579.30;1751865;80;21536;-60
2022/03/12 07:00:19;;;;;;;8.90;4.00;;;;;;;-4.41;65.45;146580.56;1751564;80;20956;-59
2022/03/12 07:02:46;;;;;;;8.67;4.47;;;;;;;-4.35;66.29;146595.92;1752111;81;21103;-59
2022/03/12 07:05:14;;;;;;;16.67;5.13;;;;;;;-4.25;65.30;146619.03;1751793;80;20908;-59
2022/03/12 07:07:42;;;;;;;11.03;5.30;;;;;;;-4.20;65.38;146631.84;1751476;81;21058;-61
2022/03/12 07:10:10;;;;;;;13.33;4.77;;;;;;;-4.11;65.24;146653.66;1778614;78;20969;-64
2022/03/12 07:12:40;;;;;;;10.87;4.97;;;;;;;-4.13;64.09;146649.78;1766816;78;21072;-63
2022/03/12 07:15:09;;;;;;;11.47;4.03;;;;;;;-4.16;64.44;146642.09;1764826;81;20866;-63
2022/03/12 07:17:38;;;;;;;8.63;4.27;;;;;;;-4.19;63.96;146634.41;1764341;81;21000;-62
2022/03/12 07:20:06;;;;;;;9.57;4.30;;;;;;;-4.19;64.02;146635.72;1765233;80;21525;-65
2022/03/12 07:22:35;;;;;;;11.33;4.40;;;;;;;-4.11;63.94;146653.66;1764277;81;21061;-57
2022/03/12 07:25:04;;;;;;;14.07;5.13;;;;;;;-3.97;64.14;146688.28;1764527;81;21395;-58
2022/03/12 07:27:34;;;;;;;9.33;4.37;;;;;;;-3.81;64.33;146728.03;1739943;81;40313;-57
2022/03/12 07:30:05;;;;;;;7.00;3.83;;;;;;;-3.65;63.36;146767.78;1767126;81;20975;-58
2022/03/12 07:32:32;;;;;;;8.37;3.60;;;;;;;-3.58;62.76;146785.78;1769623;81;21080;-58
2022/03/12 07:34:59;;;;;;;8.07;3.90;;;;;;;-3.55;62.63;146793.47;1770739;79;21032;-58
2022/03/12 07:37:26;;;;;;;7.87;3.72;;;;;;;-3.44;62.95;146820.42;1770052;81;21536;-59
2022/03/12 07:39:53;;;;;;;9.50;3.70;;;;;;;-3.27;62.57;146862.75;1770272;79;21950;-58
2022/03/12 07:42:20;;;;;;;13.38;4.03;;;;;;;-3.11;62.26;146901.28;1770387;79;21040;-58
2022/03/12 07:44:49;;;;;;;8.83;3.72;;;;;;;-3.04;61.62;146920.55;1770528;79;21092;-58
2022/03/12 07:47:16;;;;;;;7.40;3.22;;;;;;;-3.05;61.40;146917.97;1771061;81;21069;-58
2022/03/12 07:49:43;;;;;;;13.83;3.80;;;;;;;-3.11;60.81;146901.28;1770811;79;20993;-58
2022/03/12 07:52:13;;;;;;;7.20;3.40;;;;;;;-3.20;60.93;146880.77;1771577;80;21470;-57
2022/03/12 07:54:40;;;;;;;12.75;3.47;;;;;;;-3.30;62.06;146855.06;1780938;80;21012;-57
2022/03/12 07:57:07;;;;;;;7.87;3.15;;;;;;;-3.31;61.93;146853.81;1787747;80;21012;-59
2022/03/12 07:59:38;;;;;;;7.58;3.55;;;;;;;-3.26;62.13;146865.33;1787338;79;21107;-59
2022/03/12 08:02:06;;;;;;;5.97;2.80;;;;;;;-3.17;62.07;146887.16;1801681;78;21339;-58
2022/03/12 08:04:35;;;;;;;6.60;3.17;;;;;;;-3.10;62.04;146903.84;1822294;77;21211;-58
2022/03/12 08:07:07;;;;;;;8.98;3.92;;;;;;;-3.00;62.10;146929.50;1823039;78;20912;-60
2022/03/12 08:09:34;;;;;;;7.62;3.00;;;;;;;-2.96;60.97;146939.81;1821763;78;21413;-58
2022/03/12 08:12:05;;;;;;;7.65;3.08;;;;;;;-2.94;61.24;146944.94;1794529;78;20936;-59
2022/03/12 08:14:32;;;;;;;5.92;2.83;;;;;;;-2.93;60.68;146946.19;1767654;78;21006;-59
2022/03/12 08:17:00;;;;;;;4.70;2.70;;;;;;;-3.01;60.22;146926.94;1753129;80;22287;-57
2022/03/12 08:19:29;;;;;;;5.87;3.12;;;;;;;-3.10;60.52;146903.84;1752511;80;21017;-59
2022/03/12 08:22:03;;;;;;;5.67;2.73;;;;;;;-3.09;60.96;146906.41;1753299;81;20994;-59
2022/03/12 08:24:27;;;;;;;6.43;3.07;;;;;;;-3.03;61.11;146921.80;1752999;80;20959;-58
2022/03/12 08:26:54;;;;;;;10.20;3.27;;;;;;;-2.97;60.81;146935.94;1753334;80;21085;-59
2022/03/12 08:29:21;;;;;;;5.87;2.50;;;;;;;-2.91;60.46;146952.63;1760013;80;21877;-58
2022/03/12 08:31:49;;;;;;;6.37;2.67;;;;;;;-2.82;58.51;146974.47;1786376;80;21371;-58
2022/03/12 08:34:18;;;;;;;5.20;2.67;;;;;;;-2.77;57.54;146987.28;1786721;80;20966;-58
2022/03/12 08:36:45;;;;;;;3.83;2.27;;;;;;;-2.70;56.97;147003.98;1786304;80;21069;-58
2022/03/12 08:39:14;;;;;;;8.10;2.45;;;;;;;-2.57;56.87;147034.78;1786469;80;21053;-57
2022/03/12 08:41:42;;;;;;;6.95;2.77;;;;;;;-2.41;56.33;147075.89;1788009;78;21232;-62
2022/03/12 08:44:09;;;;;;;6.22;2.80;;;;;;;-2.31;54.90;147101.59;1788065;79;20965;-61
2022/03/12 08:46:38;;;;;;;6.22;2.87;;;;;;;-2.19;55.58;147129.84;1787546;79;21020;-59
2022/03/12 08:49:06;;;;;;;6.85;2.47;;;;;;;-2.13;52.49;147143.98;1788425;79;20953;-64
2022/03/12 08:51:35;;;;;;;8.83;2.70;;;;;;;-2.10;53.42;147152.98;1788298;80;20968;-63
2022/03/12 08:54:02;;;;;;;7.78;2.60;;;;;;;-2.00;53.83;147176.09;1784630;79;21286;-59
2022/03/12 08:56:29;;;;;;;5.62;2.37;;;;;;;-1.88;53.03;147206.91;1771299;79;21029;-60
2022/03/12 08:58:57;;;;;;;4.75;2.30;;;;;;;-1.81;52.08;147224.94;1771160;81;21048;-63
2022/03/12 09:01:25;;;;;;;4.50;1.98;;;;;;;-1.78;50.46;147231.33;1771137;81;20991;-60
2022/03/12 09:03:52;;;;;;;3.77;1.98;;;;;;;-1.76;49.14;147236.52;1771524;81;21330;-59
2022/03/12 09:06:19;;;;;;;3.12;1.70;;;;;;;-1.73;50.23;147244.22;1771976;79;21051;-65
2022/03/12 09:08:47;;;;;;;3.95;2.12;;;;;;;-1.68;51.07;147255.75;1771704;81;21501;-59
2022/03/12 09:11:19;;;;;;;3.17;1.80;;;;;;;-1.65;50.84;147263.50;1790384;79;20954;-61
2022/03/12 09:13:47;;;;;;;3.62;1.62;;;;;;;-1.57;49.86;147284.03;1771978;81;21084;-65
2022/03/12 09:16:15;;;;;;;4.17;1.80;;;;;;;-1.45;49.57;147314.86;1771722;79;21521;-63
2022/03/12 09:18:44;;;;;;;3.85;1.95;;;;;;;-1.31;48.51;147348.31;1771656;79;21431;-62
2022/03/12 09:21:11;;;;;;;2.45;1.67;;;;;;;-1.25;46.67;147363.72;1771628;81;20930;-58
2022/03/12 09:23:38;;;;;;;2.90;1.55;;;;;;;-1.21;46.35;147374.05;1770762;81;21048;-58
2022/03/12 09:26:06;;;;;;;6.97;1.65;;;;;;;-1.24;44.20;147366.28;1770668;81;21084;-58
2022/03/12 09:28:33;;;;;;;2.98;1.70;;;;;;;-1.25;45.16;147363.72;1770413;79;21060;-61
2022/03/12 09:31:04;;;;;;;3.52;1.62;;;;;;;-1.18;46.65;147380.44;1767800;81;21118;-58
2022/03/12 09:33:31;;;;;;;4.05;1.20;;;;;;;-1.10;47.60;147399.73;1766821;81;21059;-58
2022/03/12 09:35:58;;;;;;;2.90;1.30;;;;;;;-1.04;47.51;147415.16;1767335;81;21403;-58
2022/03/12 09:38:26;;;;;;;3.22;1.10;;;;;;;-0.96;47.23;147435.75;1766761;80;21556;-61
2022/03/12 09:40:53;;;;;;;4.50;1.22;;;;;;;-0.92;47.25;147446.03;1767225;81;21482;-58
2022/03/12 09:43:20;;;;;;;3.90;1.10;;;;;;;-0.92;47.52;147446.03;1766933;81;21104;-58
2022/03/12 09:45:47;;;;;;;1.90;1.10;;;;;;;-0.92;48.25;147446.03;1767163;81;21022;-61
2022/03/12 09:48:16;;;;;;;3.22;1.15;;;;;;;-0.94;48.05;147439.59;1767159;80;21086;-58
2022/03/12 09:50:43;;;;;;;5.60;1.52;;;;;;;-0.94;48.56;147440.91;1766647;81;21504;-58
2022/03/12 09:53:10;;;;;;;3.50;1.30;;;;;;;-0.87;49.20;147458.88;1767063;81;21492;-57
2022/03/12 09:55:39;;;;;;;7.55;1.30;;;;;;;-0.75;48.54;147487.20;1766288;80;21294;-57
2022/03/12 09:58:06;;;;;;;7.35;1.30;;;;;;;-0.75;47.93;147487.20;1766790;81;20971;-58
2022/03/12 10:00:34;;;;;;;5.20;1.57;;;;;;;-0.76;48.20;147484.63;1766523;81;21043;-57
2022/03/12 10:03:04;;;;;;;2.30;1.27;;;;;;;-0.76;47.45;147485.89;1766922;81;21050;-58
2022/03/12 10:05:31;;;;;;;2.42;1.25;;;;;;;-0.69;48.40;147502.63;1767157;80;21077;-58
2022/03/12 10:07:59;;;;;;;5.70;1.75;;;;;;;-0.62;48.26;147520.61;1766830;80;21476;-57
2022/03/12 10:10:28;;;;;;;5.28;1.55;;;;;;;-0.59;47.12;147527.06;1759070;81;21117;-57
2022/03/12 10:12:55;;;;;;;2.90;1.30;;;;;;;-0.61;47.11;147523.19;1770269;79;21072;-58
2022/03/12 10:15:23;;;;;;;2.42;1.37;;;;;;;-0.54;47.61;147538.66;1770125;81;21108;-59
2022/03/12 10:17:51;;;;;;;2.72;1.37;;;;;;;-0.49;47.19;147551.50;1770274;81;21057;-59
2022/03/12 10:20:18;;;;;;;8.38;4.17;;;;;;;-0.51;47.14;147546.37;1771006;81;21418;-59
2022/03/12 10:22:45;;;;;;;4.22;1.98;;;;;;;-0.51;48.00;147546.37;1770832;79;21009;-58
2022/03/12 10:25:14;;;;;;;4.35;1.75;;;;;;;-0.49;48.13;147551.50;1770904;81;20970;-58
2022/03/12 10:27:42;;;;;;;4.22;1.50;;;;;;;-0.47;48.02;147557.91;1771218;81;21008;-58
2022/03/12 10:30:11;;;;;;;6.65;1.42;;;;;;;-0.39;49.01;147577.22;1769560;80;21430;-59
2022/03/12 10:32:44;;;;;;;4.80;1.52;;;;;;;-0.26;49.08;147608.13;1767378;81;21264;-59
2022/03/12 10:35:20;;;;;;;3.72;1.42;;;;;;;-0.10;48.91;147649.31;1767526;81;21003;-59
2022/03/12 10:37:52;;;;;;;5.00;1.10;;;;;;;0.01;47.24;147675.02;1767265;81;21070;-59
2022/03/12 10:40:23;;;;;;;3.85;1.10;;;;;;;-0.03;46.08;147667.31;1766955;81;21417;-59
2022/03/12 10:42:56;;;;;;;2.75;1.47;;;;;;;-0.01;45.75;147671.14;1767640;81;21084;-58
2022/03/12 10:45:28;;;;;;;2.67;1.00;;;;;;;-0.01;45.63;147671.14;1767019;81;21023;-58
2022/03/12 10:47:58;;;;;;;1.72;1.15;;;;;;;-0.02;45.77;147669.88;1767423;80;21010;-59
2022/03/12 10:50:40;;;;;;;5.53;1.52;;;;;;;0.01;45.37;147675.02;1767264;81;21015;-58
2022/03/12 10:53:08;;;;;;;2.22;1.27;;;;;;;0.04;45.20;147682.73;1745698;81;21417;-58
2022/03/12 10:55:41;;;;;;;2.58;1.30;;;;;;;0.04;44.79;147684.05;1766673;81;21129;-58
2022/03/12 10:58:16;;;;;;;1.67;1.10;;;;;;;0.06;45.35;147687.87;1767322;81;21215;-57
2022/03/12 11:00:50;;;;;;;;;;;;;;;0.12;45.89;147703.36;1769241;81;21578;-59
2022/03/12 11:03:24;;;;;;;2.87;1.32;;;;;;;0.20;46.09;147723.94;1766618;81;20185;-59
2022/03/12 11:05:52;;;;;;;5.37;1.60;;;;;;;0.22;45.37;147729.08;1766571;81;21109;-59
2022/03/12 11:08:25;;;;;;;2.45;1.10;;;;;;;0.26;45.56;147738.11;1766716;81;21098;-59
2022/03/12 11:11:11;;;;;;;3.70;1.32;;;;;;;0.30;45.34;147747.09;1753011;80;21450;-57
2022/03/12 11:13:42;;;;;;;4.55;1.42;;;;;;;0.35;45.88;147760.00;1775165;80;21071;-58
2022/03/12 11:16:29;;;;;;;2.52;1.50;;;;;;;0.39;45.82;147770.28;1771616;79;21344;-58
2022/03/12 11:19:02;;;;;;;3.83;1.30;;;;;;;0.42;45.58;147778.00;1771145;79;21060;-59
2022/03/12 11:21:41;;;;;;;4.05;1.27;;;;;;;0.46;46.11;147788.30;1771152;81;21004;-58
2022/03/12 11:24:23;;;;;;;6.95;1.57;;;;;;;0.50;46.34;147798.59;1771101;79;21568;-58
2022/03/12 11:26:58;;;;;;;3.77;1.32;;;;;;;0.55;45.82;147810.19;1771890;79;21020;-58
2022/03/12 11:29:27;;;;;;;2.98;1.27;;;;;;;0.60;46.09;147821.78;1771742;79;21471;-58
2022/03/12 11:32:09;;;;;;;2.02;1.22;;;;;;;0.67;45.94;147839.81;1771839;79;21058;-58